Terminal Aerodrome Forecast
Issued by NWS

Home | Current Version | Previous Version | Graphics & Text | Print | Product List | Glossary On
Versions: 1 2 3 4 5 6 7 8 9 10 11 12 13 14 15 16 17 18 19 20 21 22
000
FTUS43 KMPX 232216 AAA
TAFRNH
TAF AMD
KRNH 232216Z 2322/2418 23012G18KT P6SM -SHRA SCT040 OVC060
      TEMPO 2322/2402 2SM TSRA OVC040CB
     FM240200 20009KT 6SM -SHRA BR SCT020 OVC035
     FM240600 20005KT 5SM BR OVC020
     FM241000 22003KT 2SM BR OVC009
     FM241400 26004KT P6SM SCT015=

USA.gov is the U.S. government's official web portal to all federal, state and local government web resources and services.